createdAt,value
2023-04-27T00:01:48.891Z,101612.44
2023-04-27T00:04:17.287Z,101611.41
2023-04-27T00:06:45.213Z,101603.31
2023-04-27T00:09:14.560Z,101611.06
2023-04-27T00:11:43.071Z,101611.44
2023-04-27T00:14:10.808Z,101601.09
2023-04-27T00:16:38.615Z,101611.19
2023-04-27T00:19:06.942Z,101595.22
2023-04-27T00:21:34.681Z,101607.34
2023-04-27T00:24:02.523Z,101594.28
2023-04-27T00:26:31.623Z,101600.06
2023-04-27T00:28:59.340Z,101605.72
2023-04-27T00:31:27.126Z,101594.16
2023-04-27T00:33:54.851Z,101597.66
2023-04-27T00:36:22.565Z,101596.81
2023-04-27T00:38:50.318Z,101600.69
2023-04-27T00:41:18.069Z,101592.41
2023-04-27T00:43:47.817Z,101578.16
2023-04-27T00:46:17.549Z,101575.88
2023-04-27T00:48:45.598Z,101568.84
2023-04-27T00:51:13.448Z,101573.16
2023-04-27T00:53:41.667Z,101567.34
2023-04-27T00:56:09.502Z,101575.44
2023-04-27T00:58:37.256Z,101563.88
2023-04-27T01:01:06.476Z,101561.97
2023-04-27T01:03:34.330Z,101544.72
2023-04-27T01:06:02.427Z,101551.38
2023-04-27T01:08:30.229Z,101552.31
2023-04-27T01:10:57.944Z,101566.97
2023-04-27T01:13:25.791Z,101573.75
2023-04-27T01:15:53.565Z,101550.09
2023-04-27T01:18:23.601Z,101546.50
2023-04-27T01:20:51.423Z,101541.25
2023-04-27T01:23:20.525Z,101552.59
2023-04-27T01:25:48.363Z,101549.59
2023-04-27T01:28:16.106Z,101549.25
2023-04-27T01:30:43.863Z,101561.31
2023-04-27T01:33:11.789Z,101560.28
2023-04-27T01:35:39.520Z,101548.94
2023-04-27T01:38:07.281Z,101560.72
2023-04-27T01:40:36.382Z,101562.09
2023-04-27T01:43:04.144Z,101563.38
2023-04-27T01:45:32.002Z,101567.81
2023-04-27T01:47:59.793Z,101568.19
2023-04-27T01:50:27.868Z,101550.63
2023-04-27T01:52:55.727Z,101564.66
2023-04-27T01:55:23.450Z,101536.19
2023-04-27T01:57:52.531Z,101538.09
2023-04-27T02:00:20.686Z,101510.69
2023-04-27T02:02:51.062Z,101501.31
2023-04-27T02:05:19.086Z,101528.97
2023-04-27T02:07:46.813Z,101527.81
2023-04-27T02:10:14.539Z,101528.13
2023-04-27T02:12:42.286Z,101514.09
2023-04-27T02:15:11.663Z,101524.75
2023-04-27T02:17:39.955Z,101524.72
2023-04-27T02:20:08.984Z,101501.53
2023-04-27T02:22:36.964Z,101498.41
2023-04-27T02:25:05.418Z,101505.25
2023-04-27T02:27:33.105Z,101520.69
2023-04-27T02:30:05.468Z,101498.78
2023-04-27T02:32:35.157Z,101512.97
2023-04-27T02:35:03.355Z,101495.69
2023-04-27T02:37:31.244Z,101500.22
2023-04-27T02:39:59.719Z,101512.03
2023-04-27T02:42:27.717Z,101487.84
2023-04-27T02:44:55.706Z,101480.72
2023-04-27T02:47:23.429Z,101469.22
2023-04-27T02:49:52.982Z,101482.31
2023-04-27T02:52:20.689Z,101484.47
2023-04-27T02:54:48.444Z,101497.72
2023-04-27T02:57:16.243Z,101514.91
2023-04-27T02:59:43.950Z,101512.38
2023-04-27T03:02:11.699Z,101482.22
2023-04-27T03:04:39.544Z,101470.88
2023-04-27T03:07:08.677Z,101469.72
2023-04-27T03:09:36.426Z,101482.81
2023-04-27T03:12:04.532Z,101483.50
2023-04-27T03:14:32.425Z,101499.91
2023-04-27T03:17:00.169Z,101508.56
2023-04-27T03:19:27.906Z,101515.00
2023-04-27T03:21:55.662Z,101523.19
2023-04-27T03:24:25.839Z,101514.00
2023-04-27T03:26:53.617Z,101504.25
2023-04-27T03:29:21.341Z,101488.13
2023-04-27T03:31:49.098Z,101486.41
2023-04-27T03:34:16.881Z,101498.53
2023-04-27T03:36:44.621Z,101484.84
2023-04-27T03:39:12.555Z,101488.97
2023-04-27T03:41:41.777Z,101501.25
2023-04-27T03:44:09.650Z,101508.78
2023-04-27T03:46:37.371Z,101518.88
2023-04-27T03:49:05.167Z,101516.56
2023-04-27T03:51:33.384Z,101516.75
2023-04-27T03:54:01.438Z,101518.88
2023-04-27T03:56:29.188Z,101519.44
2023-04-27T03:58:58.319Z,101522.63
2023-04-27T04:01:26.315Z,101502.47
2023-04-27T04:03:54.186Z,101492.44
2023-04-27T04:06:22.139Z,101484.66
2023-04-27T04:08:49.846Z,101473.31
2023-04-27T04:11:17.557Z,101480.66
2023-04-27T04:13:45.804Z,101490.38
2023-04-27T04:16:14.941Z,101474.63
2023-04-27T04:18:42.707Z,101478.66
2023-04-27T04:21:11.190Z,101480.63
2023-04-27T04:23:41.230Z,101488.75
2023-04-27T04:26:09.964Z,101512.72
2023-04-27T04:28:38.199Z,101507.53
2023-04-27T04:31:06.561Z,101520.66
2023-04-27T04:33:35.747Z,101508.25
2023-04-27T04:36:05.012Z,101517.13
2023-04-27T04:38:32.948Z,101532.75
2023-04-27T04:41:01.185Z,101539.06
2023-04-27T04:43:28.933Z,101539.44
2023-04-27T04:45:56.632Z,101566.50
2023-04-27T04:48:24.342Z,101554.59
2023-04-27T04:50:53.422Z,101540.81
2023-04-27T04:53:21.221Z,101540.09
2023-04-27T04:55:48.956Z,101544.19
2023-04-27T04:58:16.665Z,101511.28
2023-04-27T05:00:44.377Z,101532.91
2023-04-27T05:03:12.132Z,101524.16
2023-04-27T05:05:39.964Z,101533.25
2023-04-27T05:08:09.054Z,101523.41
2023-04-27T05:10:36.875Z,101527.91
2023-04-27T05:13:05.953Z,101544.16
2023-04-27T05:15:34.848Z,101525.00
2023-04-27T05:18:02.573Z,101539.28
2023-04-27T05:20:30.355Z,101521.69
2023-04-27T05:22:58.026Z,101540.19
2023-04-27T05:25:27.257Z,101554.66
2023-04-27T05:27:55.003Z,101556.22
2023-04-27T05:30:22.974Z,101574.94
2023-04-27T05:32:50.844Z,101561.06
2023-04-27T05:35:18.658Z,101575.09
2023-04-27T05:37:46.360Z,101596.16
2023-04-27T05:40:16.222Z,101586.38
2023-04-27T05:42:47.155Z,101589.13
2023-04-27T05:45:15.176Z,101579.78
2023-04-27T05:47:43.097Z,101606.72
2023-04-27T05:50:11.605Z,101607.09
2023-04-27T05:52:39.461Z,101612.66
2023-04-27T05:55:08.569Z,101636.41
2023-04-27T05:57:36.353Z,101636.25
2023-04-27T06:00:10.630Z,101642.38
2023-04-27T06:02:38.528Z,101659.59
2023-04-27T06:05:07.155Z,101654.53
2023-04-27T06:07:34.911Z,101678.13
2023-04-27T06:10:03.164Z,101682.31
2023-04-27T06:12:30.938Z,101676.88
2023-04-27T06:14:58.770Z,101698.81
2023-04-27T06:17:27.926Z,101666.38
2023-04-27T06:19:55.682Z,101645.84
2023-04-27T06:22:23.372Z,101648.31
2023-04-27T06:24:51.045Z,101654.47
2023-04-27T06:27:18.721Z,101665.78
2023-04-27T06:29:46.410Z,101678.72
2023-04-27T06:32:14.173Z,101695.59
2023-04-27T06:34:43.235Z,101713.13
2023-04-27T06:37:11.044Z,101710.41
2023-04-27T06:39:38.732Z,101744.28
2023-04-27T06:42:06.549Z,101734.06
2023-04-27T06:44:34.252Z,101755.03
2023-04-27T06:47:01.951Z,101744.72
2023-04-27T06:49:29.722Z,101754.47
2023-04-27T06:51:58.817Z,101753.78
2023-04-27T06:54:26.801Z,101774.16
2023-04-27T06:56:54.712Z,101773.22
2023-04-27T06:59:22.503Z,101774.91
2023-04-27T07:01:50.469Z,101786.91
2023-04-27T07:04:18.324Z,101810.59
2023-04-27T07:06:46.345Z,101810.34
2023-04-27T07:09:26.454Z,101820.63
2023-04-27T07:11:55.051Z,101826.66
2023-04-27T07:14:23.343Z,101831.84
2023-04-27T07:16:51.317Z,101827.84
2023-04-27T07:19:19.060Z,101835.63
2023-04-27T07:21:46.739Z,101838.69
2023-04-27T07:24:15.818Z,101835.41
2023-04-27T07:26:43.580Z,101846.53
2023-04-27T07:29:25.533Z,101857.94
2023-04-27T07:31:55.649Z,101854.16
2023-04-27T07:34:23.930Z,101843.75
2023-04-27T07:36:54.181Z,101863.88
2023-04-27T07:39:23.956Z,101864.94
2023-04-27T07:41:51.761Z,101862.16
2023-04-27T07:44:20.311Z,101855.75
2023-04-27T07:46:49.464Z,101853.28
2023-04-27T07:49:17.510Z,101871.06
2023-04-27T07:51:45.352Z,101884.25
2023-04-27T07:54:13.171Z,101883.72
2023-04-27T07:56:43.492Z,101871.34
2023-04-27T07:59:11.666Z,101870.44
2023-04-27T08:01:39.680Z,101885.09
2023-04-27T08:04:07.866Z,101872.84
2023-04-27T08:06:36.137Z,101896.59
2023-04-27T08:09:05.084Z,101877.19
2023-04-27T08:11:32.921Z,101879.25
2023-04-27T08:14:02.081Z,101881.69
2023-04-27T08:16:29.919Z,101898.72
2023-04-27T08:19:00.462Z,101884.13
2023-04-27T08:21:30.481Z,101891.47
2023-04-27T08:23:58.223Z,101886.47
2023-04-27T08:26:26.449Z,101888.94
2023-04-27T08:28:54.406Z,101893.28
2023-04-27T08:31:23.747Z,101888.56
2023-04-27T08:33:52.248Z,101887.50
2023-04-27T08:36:20.036Z,101883.84
2023-04-27T08:38:47.757Z,101892.47
2023-04-27T08:41:21.935Z,101903.47
2023-04-27T08:43:50.844Z,101915.34
2023-04-27T08:46:23.932Z,101899.03
2023-04-27T08:48:52.385Z,101895.31
2023-04-27T08:51:21.448Z,101905.16
2023-04-27T08:53:51.410Z,101897.69
2023-04-27T08:56:19.689Z,101891.22
2023-04-27T08:58:47.547Z,101899.41
2023-04-27T09:01:16.127Z,101906.06
2023-04-27T09:06:14.628Z,101897.38
2023-04-27T09:08:43.404Z,101896.22
2023-04-27T09:11:11.299Z,101907.06
2023-04-27T09:13:40.698Z,101879.66
2023-04-27T09:16:08.979Z,101883.13
2023-04-27T09:18:38.140Z,101889.38
2023-04-27T09:21:07.469Z,101889.06
2023-04-27T09:23:37.474Z,101903.41
2023-04-27T09:26:08.109Z,101899.25
2023-04-27T09:28:38.781Z,101903.69
2023-04-27T09:31:09.170Z,101904.09
2023-04-27T09:33:37.339Z,101917.59
2023-04-27T09:36:08.148Z,101903.09
2023-04-27T09:38:35.990Z,101893.03
2023-04-27T09:41:04.393Z,101888.56
2023-04-27T09:43:32.094Z,101886.88
2023-04-27T09:46:00.054Z,101896.06
2023-04-27T09:48:27.933Z,101886.41
2023-04-27T09:50:55.693Z,101892.72
2023-04-27T09:53:30.346Z,101889.41
2023-04-27T09:56:11.570Z,101885.16
2023-04-27T09:58:59.863Z,101900.88
2023-04-27T10:01:37.433Z,101893.94
2023-04-27T10:04:22.556Z,101881.34
2023-04-27T10:07:00.238Z,101864.09
2023-04-27T10:09:35.304Z,101863.19
2023-04-27T10:12:16.728Z,101875.75
2023-04-27T10:14:54.430Z,101849.94
2023-04-27T10:17:26.979Z,101850.66
2023-04-27T10:19:59.122Z,101848.84
2023-04-27T10:22:40.120Z,101848.69
2023-04-27T10:25:18.805Z,101849.50
2023-04-27T10:27:51.930Z,101860.28
2023-04-27T10:30:21.269Z,101869.66
2023-04-27T10:32:53.561Z,101860.75
2023-04-27T10:35:22.556Z,101851.78
2023-04-27T10:37:52.103Z,101860.09
2023-04-27T10:40:21.250Z,101863.63
2023-04-27T10:42:49.625Z,101855.81
2023-04-27T10:45:31.159Z,101874.06
2023-04-27T10:48:01.693Z,101878.59
2023-04-27T10:50:30.013Z,101864.59
2023-04-27T10:53:01.598Z,101875.91
2023-04-27T10:55:31.477Z,101868.66
2023-04-27T10:57:59.305Z,101869.41
2023-04-27T11:00:29.016Z,101870.34
2023-04-27T11:02:58.924Z,101876.78
2023-04-27T11:05:30.575Z,101881.38
2023-04-27T11:08:08.344Z,101876.59
2023-04-27T11:10:41.174Z,101875.00
2023-04-27T11:13:11.253Z,101878.56
2023-04-27T11:15:46.717Z,101887.09
2023-04-27T11:18:15.555Z,101879.34
2023-04-27T11:20:44.210Z,101881.13
2023-04-27T11:23:12.262Z,101880.22
2023-04-27T11:25:41.384Z,101902.81
2023-04-27T11:28:18.403Z,101907.19
2023-04-27T11:30:46.250Z,101885.63
2023-04-27T11:33:14.169Z,101882.03
2023-04-27T11:35:42.646Z,101891.88
2023-04-27T11:38:17.531Z,101899.75
2023-04-27T11:40:47.956Z,101913.47
2023-04-27T11:43:16.054Z,101908.50
2023-04-27T11:45:44.744Z,101912.91
2023-04-27T11:48:15.322Z,101892.72
2023-04-27T11:50:43.696Z,101903.13
2023-04-27T11:53:11.398Z,101903.53
2023-04-27T11:55:41.248Z,101908.88
2023-04-27T11:58:16.382Z,101915.00
2023-04-27T12:00:44.245Z,101904.63
2023-04-27T12:03:12.149Z,101895.34
2023-04-27T12:05:50.021Z,101887.06
2023-04-27T12:08:18.102Z,101884.69
2023-04-27T12:10:46.432Z,101892.22
2023-04-27T12:13:15.932Z,101893.25
2023-04-27T12:15:44.099Z,101881.41
2023-04-27T12:18:12.277Z,101887.66
2023-04-27T12:20:40.007Z,101891.63
2023-04-27T12:23:07.729Z,101883.97
2023-04-27T12:25:36.403Z,101876.09
2023-04-27T12:28:04.311Z,101878.19
2023-04-27T12:30:33.384Z,101873.09
2023-04-27T12:33:01.306Z,101875.88
2023-04-27T12:35:31.938Z,101881.78
2023-04-27T12:37:59.924Z,101869.50
2023-04-27T12:40:27.613Z,101875.84
2023-04-27T12:42:55.328Z,101874.06
2023-04-27T12:45:23.047Z,101872.47
2023-04-27T12:48:02.710Z,101879.56
2023-04-27T12:50:31.784Z,101894.84
2023-04-27T12:52:59.721Z,101890.91
2023-04-27T12:57:58.480Z,101888.84
2023-04-27T13:00:26.432Z,101880.91
2023-04-27T13:02:56.599Z,101865.47
2023-04-27T13:05:24.767Z,101871.13
2023-04-27T13:07:52.870Z,101873.69
2023-04-27T13:10:20.718Z,101871.00
2023-04-27T13:12:48.482Z,101882.81
2023-04-27T13:15:16.209Z,101883.63
2023-04-27T13:17:44.158Z,101881.13
2023-04-27T13:20:14.013Z,101882.75
2023-04-27T13:22:42.270Z,101889.41
2023-04-27T13:25:10.607Z,101879.50
2023-04-27T13:27:38.295Z,101886.66
2023-04-27T13:30:07.308Z,101892.78
2023-04-27T13:32:35.092Z,101871.84
2023-04-27T13:35:03.883Z,101883.19
2023-04-27T13:37:33.003Z,101878.41
2023-04-27T13:40:00.819Z,101899.72
2023-04-27T13:42:29.581Z,101896.50
2023-04-27T13:44:57.645Z,101893.78
2023-04-27T13:47:25.451Z,101904.19
2023-04-27T13:49:53.203Z,101902.91
2023-04-27T13:52:23.293Z,101913.91
2023-04-27T13:54:52.595Z,101915.09
2023-04-27T13:57:20.295Z,101906.41
2023-04-27T13:59:48.054Z,101926.03
2023-04-27T14:02:15.930Z,101890.81
2023-04-27T14:04:43.757Z,101897.66
2023-04-27T14:07:11.513Z,101902.16
2023-04-27T14:09:39.260Z,101900.56
2023-04-27T14:12:08.672Z,101902.75
2023-04-27T14:14:36.881Z,101908.84
2023-04-27T14:17:05.059Z,101897.47
2023-04-27T14:19:33.053Z,101910.34
2023-04-27T14:22:01.432Z,101931.97
2023-04-27T14:24:30.298Z,101930.31
2023-04-27T14:26:57.983Z,101933.06
2023-04-27T14:29:27.164Z,101929.69
2023-04-27T14:31:55.956Z,101937.44
2023-04-27T14:34:23.947Z,101941.25
2023-04-27T14:36:51.689Z,101948.63
2023-04-27T14:39:20.481Z,101931.38
2023-04-27T14:41:48.184Z,101935.34
2023-04-27T14:44:15.907Z,101932.22
2023-04-27T14:46:45.043Z,101935.13
2023-04-27T14:49:13.511Z,101931.44
2023-04-27T14:51:43.392Z,101941.16
2023-04-27T14:54:11.415Z,101937.22
2023-04-27T14:56:39.164Z,101935.19
2023-04-27T14:59:07.183Z,101936.59
2023-04-27T15:01:36.471Z,101920.09
2023-04-27T15:04:06.404Z,101913.41
2023-04-27T15:06:34.223Z,101918.81
2023-04-27T15:09:01.929Z,101916.47
2023-04-27T15:11:29.659Z,101919.72
2023-04-27T15:13:57.380Z,101920.56
2023-04-27T15:16:25.567Z,101916.41
2023-04-27T15:18:53.310Z,101924.19
2023-04-27T15:21:23.301Z,101920.19
2023-04-27T15:23:51.057Z,101917.59
2023-04-27T15:26:18.859Z,101921.00
2023-04-27T15:28:46.590Z,101910.50
2023-04-27T15:31:14.337Z,101912.16
2023-04-27T15:33:42.074Z,101910.56
2023-04-27T15:36:10.359Z,101913.56
2023-04-27T15:38:39.430Z,101914.47
2023-04-27T15:41:07.204Z,101913.72
2023-04-27T15:43:35.539Z,101921.34
2023-04-27T15:46:04.412Z,101914.47
2023-04-27T15:48:32.134Z,101917.22
2023-04-27T15:51:01.227Z,101914.13
2023-04-27T15:53:29.088Z,101919.38
2023-04-27T15:55:58.667Z,101907.72
2023-04-27T15:58:26.734Z,101915.72
2023-04-27T16:00:54.500Z,101910.84
2023-04-27T16:03:22.363Z,101914.41
2023-04-27T16:05:50.864Z,101905.13
2023-04-27T16:08:18.537Z,101899.22
2023-04-27T16:10:46.261Z,101907.53
2023-04-27T16:13:15.381Z,101896.41
2023-04-27T16:15:43.100Z,101894.69
2023-04-27T16:18:10.948Z,101894.91
2023-04-27T16:20:39.686Z,101907.53
2023-04-27T16:23:07.439Z,101902.94
2023-04-27T16:25:35.136Z,101910.66
2023-04-27T16:28:03.005Z,101907.06
2023-04-27T16:30:32.176Z,101918.22
2023-04-27T16:33:00.024Z,101911.81
2023-04-27T16:35:29.135Z,101906.91
2023-04-27T16:37:56.929Z,101901.81
2023-04-27T16:40:24.644Z,101902.44
2023-04-27T16:42:52.360Z,101903.41
2023-04-27T16:45:20.569Z,101900.03
2023-04-27T16:47:49.787Z,101911.59
2023-04-27T16:50:17.839Z,101913.13
2023-04-27T16:52:45.590Z,101906.81
2023-04-27T16:55:13.325Z,101908.00
2023-04-27T16:57:41.015Z,101903.19
2023-04-27T17:00:10.633Z,101903.88
2023-04-27T17:02:40.513Z,101910.00
2023-04-27T17:05:11.950Z,101909.69
2023-04-27T17:07:40.275Z,101918.09
2023-04-27T17:10:09.535Z,101910.97
2023-04-27T17:12:37.424Z,101916.66
2023-04-27T17:15:06.691Z,101918.34
2023-04-27T17:17:35.534Z,101922.94
2023-04-27T17:20:04.981Z,101928.81
2023-04-27T17:22:34.114Z,101937.41
2023-04-27T17:25:01.912Z,101926.50
2023-04-27T17:27:29.791Z,101921.84
2023-04-27T17:29:57.997Z,101924.63
2023-04-27T17:32:26.204Z,101922.34
2023-04-27T17:34:53.960Z,101921.59
2023-04-27T17:37:21.655Z,101923.50
2023-04-27T17:39:53.002Z,101923.97
2023-04-27T17:42:20.819Z,101923.41
2023-04-27T17:44:48.570Z,101926.19
2023-04-27T17:47:18.671Z,101917.75
2023-04-27T17:49:46.391Z,101927.75
2023-04-27T17:52:14.110Z,101917.38
2023-04-27T17:54:41.870Z,101930.06
2023-04-27T17:57:10.983Z,101919.78
2023-04-27T17:59:38.760Z,101920.59
2023-04-27T18:02:06.502Z,101931.44
2023-04-27T18:04:34.405Z,101932.69
2023-04-27T18:07:02.242Z,101930.34
2023-04-27T18:09:31.507Z,101928.28
2023-04-27T18:12:00.699Z,101930.09
2023-04-27T18:14:30.194Z,101930.75
2023-04-27T18:16:57.923Z,101926.03
2023-04-27T18:19:25.808Z,101921.69
2023-04-27T18:21:53.512Z,101925.72
2023-04-27T18:24:21.277Z,101927.25
2023-04-27T18:26:49.057Z,101920.97
2023-04-27T18:29:16.839Z,101931.38
2023-04-27T18:31:46.231Z,101919.81
2023-04-27T18:34:14.422Z,101932.63
2023-04-27T18:36:42.177Z,101929.56
2023-04-27T18:39:10.020Z,101929.03
2023-04-27T18:41:37.813Z,101939.19
2023-04-27T18:44:06.083Z,101941.31
2023-04-27T18:46:34.160Z,101935.03
2023-04-27T18:49:04.129Z,101939.28
2023-04-27T18:51:32.209Z,101940.00
2023-04-27T18:54:00.120Z,101940.03
2023-04-27T18:56:27.869Z,101940.94
2023-04-27T18:58:55.970Z,101937.81
2023-04-27T19:01:24.940Z,101944.19
2023-04-27T19:03:53.529Z,101943.75
2023-04-27T19:06:22.842Z,101934.84
2023-04-27T19:08:50.979Z,101931.69
2023-04-27T19:11:22.156Z,101937.50
2023-04-27T19:13:51.556Z,101943.06
2023-04-27T19:16:19.345Z,101943.88
2023-04-27T19:18:47.309Z,101944.47
2023-04-27T19:21:15.115Z,101948.34
2023-04-27T19:23:45.125Z,101934.97
2023-04-27T19:26:13.885Z,101941.19
2023-04-27T19:28:42.209Z,101941.34
2023-04-27T19:31:10.069Z,101936.03
2023-04-27T19:33:38.010Z,101937.03
2023-04-27T19:36:06.113Z,101937.38
2023-04-27T19:38:34.542Z,101930.81
2023-04-27T19:41:06.764Z,101929.31
2023-04-27T19:43:34.851Z,101922.78
2023-04-27T19:46:03.341Z,101917.13
2023-04-27T19:48:31.235Z,101916.72
2023-04-27T19:50:59.055Z,101907.44
2023-04-27T19:53:26.844Z,101904.56
2023-04-27T19:55:54.549Z,101906.44
2023-04-27T19:58:23.622Z,101910.16
2023-04-27T20:00:51.454Z,101906.56
2023-04-27T20:03:19.299Z,101904.88
2023-04-27T20:05:47.328Z,101911.84
2023-04-27T20:08:15.339Z,101904.97
2023-04-27T20:10:43.532Z,101907.50
2023-04-27T20:13:11.344Z,101907.84
2023-04-27T20:15:40.425Z,101898.63
2023-04-27T20:18:08.154Z,101907.09
2023-04-27T20:20:37.520Z,101899.56
2023-04-27T20:23:05.358Z,101897.91
2023-04-27T20:25:33.998Z,101902.59
2023-04-27T20:28:01.840Z,101907.75
2023-04-27T20:30:29.819Z,101899.59
2023-04-27T20:32:59.337Z,101891.16
2023-04-27T20:35:27.728Z,101891.13
2023-04-27T20:37:57.876Z,101881.94
2023-04-27T20:40:25.740Z,101882.66
2023-04-27T20:42:53.475Z,101885.53
2023-04-27T20:45:21.821Z,101883.41
2023-04-27T20:47:49.931Z,101874.94
2023-04-27T20:50:19.320Z,101872.94
2023-04-27T20:52:47.039Z,101853.06
2023-04-27T20:55:14.803Z,101863.22
2023-04-27T20:57:42.506Z,101841.91
2023-04-27T21:00:10.931Z,101851.72
2023-04-27T21:02:38.930Z,101865.56
2023-04-27T21:05:06.827Z,101859.09
2023-04-27T21:07:36.239Z,101870.09
2023-04-27T21:10:06.641Z,101871.25
2023-04-27T21:12:34.612Z,101862.28
2023-04-27T21:15:03.308Z,101863.13
2023-04-27T21:17:31.085Z,101870.50
2023-04-27T21:19:58.876Z,101873.38
2023-04-27T21:22:26.601Z,101874.84
2023-04-27T21:24:55.738Z,101877.59
2023-04-27T21:27:25.004Z,101885.97
2023-04-27T21:29:53.273Z,101878.88
2023-04-27T21:32:21.054Z,101876.31
2023-04-27T21:34:48.769Z,101873.16
2023-04-27T21:37:16.613Z,101872.69
2023-04-27T21:39:44.475Z,101863.84
2023-04-27T21:42:13.555Z,101858.16
2023-04-27T21:44:41.597Z,101864.16
2023-04-27T21:47:09.312Z,101862.28
2023-04-27T21:49:37.048Z,101863.50
2023-04-27T21:52:05.407Z,101854.66
2023-04-27T21:54:33.326Z,101863.75
2023-04-27T21:57:01.028Z,101861.84
2023-04-27T21:59:30.137Z,101879.06
2023-04-27T22:01:59.326Z,101869.66
2023-04-27T22:04:27.274Z,101844.16
2023-04-27T22:06:55.115Z,101841.28
2023-04-27T22:09:22.887Z,101808.16
2023-04-27T22:11:51.326Z,101811.28
2023-04-27T22:14:19.111Z,101800.00
2023-04-27T22:16:48.847Z,101801.09
2023-04-27T22:19:17.910Z,101819.06
2023-04-27T22:21:45.673Z,101822.38
2023-04-27T22:24:13.505Z,101854.97
2023-04-27T22:26:41.249Z,101847.19
2023-04-27T22:29:08.983Z,101858.09
2023-04-27T22:31:36.781Z,101855.66
2023-04-27T22:34:06.261Z,101853.38
2023-04-27T22:36:34.518Z,101824.47
2023-04-27T22:39:02.432Z,101801.22
2023-04-27T22:41:30.159Z,101776.69
2023-04-27T22:43:57.955Z,101779.03
2023-04-27T22:46:25.932Z,101779.31
2023-04-27T22:48:53.659Z,101778.94
2023-04-27T22:51:23.714Z,101777.53
2023-04-27T22:53:51.441Z,101761.09
2023-04-27T22:56:19.209Z,101765.75
2023-04-27T22:58:47.163Z,101753.94
2023-04-27T23:01:14.909Z,101741.63
2023-04-27T23:03:42.727Z,101727.53
2023-04-27T23:06:14.245Z,101709.34
2023-04-27T23:08:45.895Z,101659.09
2023-04-27T23:11:15.485Z,101625.53
2023-04-27T23:13:43.992Z,101617.97
2023-04-27T23:16:11.954Z,101649.81
2023-04-27T23:18:39.745Z,101633.84
2023-04-27T23:21:07.480Z,101647.38
2023-04-27T23:23:35.171Z,101648.59
2023-04-27T23:26:04.301Z,101677.69
2023-04-27T23:28:31.995Z,101683.63
2023-04-27T23:30:59.749Z,101679.22
2023-04-27T23:33:27.476Z,101679.59
2023-04-27T23:35:56.151Z,101658.66
2023-04-27T23:38:24.138Z,101691.91
2023-04-27T23:40:52.076Z,101725.66
2023-04-27T23:43:21.171Z,101718.94
2023-04-27T23:45:50.653Z,101714.47
2023-04-27T23:48:18.823Z,101714.75
2023-04-27T23:50:46.799Z,101714.44
2023-04-27T23:53:14.635Z,101742.03
2023-04-27T23:55:42.464Z,101747.91
2023-04-27T23:58:10.182Z,101734.22
